Time;durP1;ratioP1;P1;durP2;ratioP2;P2;SDS_P1;SDS_P2;PMS_P1;PMS_P2;Temp;Humidity;BMP_temperature;BMP_pressure;BME280_temperature;BME280_humidity;BME280_pressure;Samples;Min_cycle;Max_cycle;Signal;HPM_P1;HPM_P2
2021/10/29 00:01:18;;;;;;;38.37;22.43;;;;;;;7.38;80.36;100033.59;5068093;28;20508;-82
2021/10/29 00:03:45;;;;;;;41.57;23.13;;;;;;;7.33;80.60;100047.28;5076868;28;21007;-79
2021/10/29 00:06:13;;;;;;;35.20;22.00;;;;;;;7.36;80.20;100047.03;5063411;28;20488;-80
2021/10/29 00:08:41;;;;;;;37.50;22.20;;;;;;;7.24;80.78;100050.66;5071129;28;20457;-78
2021/10/29 00:11:08;;;;;;;31.60;21.57;;;;;;;7.24;80.94;100045.34;5064516;28;20502;-75
2021/10/29 00:13:34;;;;;;;36.40;22.70;;;;;;;7.38;80.52;100054.88;5064482;28;20433;-79
2021/10/29 00:16:01;;;;;;;33.50;22.23;;;;;;;7.47;80.03;100054.13;5061977;28;20485;-82
2021/10/29 00:18:27;;;;;;;32.67;21.60;;;;;;;7.50;79.60;100052.06;5075215;28;21019;-85
2021/10/29 00:20:54;;;;;;;34.77;19.80;;;;;;;7.52;79.50;100052.78;5064610;28;20528;-81
2021/10/29 00:23:22;;;;;;;39.03;21.80;;;;;;;7.32;80.76;100049.06;5080573;28;20439;-84
2021/10/29 00:25:49;;;;;;;53.03;21.70;;;;;;;7.34;80.51;100044.50;5062915;28;20480;-84
2021/10/29 00:28:16;;;;;;;40.27;22.60;;;;;;;7.29;80.91;100043.16;5067278;28;20473;-81
2021/10/29 00:30:42;;;;;;;37.27;22.70;;;;;;;7.34;80.63;100043.63;5073213;28;20488;-84
2021/10/29 00:33:09;;;;;;;38.97;22.60;;;;;;;7.24;81.19;100045.34;5071796;28;20452;-84
2021/10/29 00:35:35;;;;;;;38.43;23.60;;;;;;;7.21;80.83;100045.63;5066526;28;20500;-83
2021/10/29 00:38:02;;;;;;;40.43;23.80;;;;;;;7.33;80.58;100041.97;5067959;28;20505;-85
2021/10/29 00:40:30;;;;;;;41.17;23.80;;;;;;;7.26;80.28;100043.44;5063745;28;20521;-81
2021/10/29 00:42:57;;;;;;;40.80;22.77;;;;;;;7.23;80.27;100046.34;5080086;28;20475;-79
2021/10/29 00:45:24;;;;;;;37.77;20.87;;;;;;;7.10;80.91;100042.00;5072469;28;20954;-81
2021/10/29 00:47:52;;;;;;;43.60;24.87;;;;;;;7.18;80.79;100045.88;5062106;28;20689;-83
2021/10/29 00:50:19;;;;;;;40.47;24.67;;;;;;;7.01;81.64;100042.72;5079693;28;20456;-84
2021/10/29 00:52:46;;;;;;;39.80;24.87;;;;;;;7.03;81.79;100043.47;5082404;28;20451;-82
2021/10/29 00:55:14;;;;;;;52.07;26.20;;;;;;;7.04;82.01;100031.03;5062612;28;20485;-83
2021/10/29 00:57:43;;;;;;;40.47;23.77;;;;;;;7.05;81.53;100038.88;5069282;28;20444;-83
2021/10/29 01:00:11;;;;;;;46.60;25.23;;;;;;;7.00;82.20;100030.44;5078770;28;20515;-82
2021/10/29 01:02:38;;;;;;;41.43;23.67;;;;;;;7.15;81.27;100029.19;5062469;28;20465;-84
2021/10/29 01:05:06;;;;;;;42.33;22.53;;;;;;;7.10;81.48;100026.06;5061266;28;20859;-81
2021/10/29 01:07:33;;;;;;;38.47;22.27;;;;;;;7.18;81.09;100032.56;5064341;28;20452;-84
2021/10/29 01:09:59;;;;;;;45.80;24.97;;;;;;;7.29;80.54;100022.75;5065637;28;20511;-83
2021/10/29 01:12:26;;;;;;;43.40;23.17;;;;;;;7.20;80.57;100033.28;5060705;28;20543;-81
2021/10/29 01:14:55;;;;;;;41.40;23.30;;;;;;;7.15;80.44;100020.34;5074764;28;20488;-83
2021/10/29 01:17:23;;;;;;;41.23;22.73;;;;;;;7.05;81.08;100014.97;5081210;28;20562;-83
2021/10/29 01:19:52;;;;;;;43.60;23.43;;;;;;;6.98;81.30;100019.91;5069247;28;20484;-80
2021/10/29 01:22:20;;;;;;;55.70;28.50;;;;;;;7.00;82.32;100024.28;5061523;28;20490;-84
2021/10/29 01:24:47;;;;;;;49.40;25.57;;;;;;;6.94;82.72;100021.16;5061966;28;20459;-82
2021/10/29 01:27:14;;;;;;;45.83;25.47;;;;;;;6.98;82.22;100014.59;5077046;28;20684;-82
2021/10/29 01:29:41;;;;;;;50.00;25.37;;;;;;;6.95;82.01;100012.19;5071252;28;20457;-81
2021/10/29 01:32:10;;;;;;;47.37;25.37;;;;;;;6.91;82.76;100010.75;5060997;28;20544;-86
2021/10/29 01:34:37;;;;;;;48.90;25.80;;;;;;;6.89;82.91;100002.06;5069678;28;21149;-79
2021/10/29 01:37:05;;;;;;;41.90;24.77;;;;;;;6.92;82.93;99999.13;5074088;28;20476;-84
2021/10/29 01:39:34;;;;;;;44.23;25.90;;;;;;;6.92;82.61;99990.31;5060688;28;20551;-84
2021/10/29 01:42:00;;;;;;;49.43;23.93;;;;;;;7.00;82.02;99979.94;5067421;28;20503;-85
2021/10/29 01:44:27;;;;;;;46.07;25.43;;;;;;;6.93;82.30;99982.22;5082959;28;20448;-84
2021/10/29 01:46:54;;;;;;;46.67;26.33;;;;;;;6.95;82.53;99977.63;5080148;28;20519;-82
2021/10/29 01:49:21;;;;;;;47.60;25.50;;;;;;;6.88;82.53;99980.91;5078413;28;21023;-83
2021/10/29 01:51:48;;;;;;;50.80;25.70;;;;;;;6.97;82.36;99974.84;5066055;28;20503;-84
2021/10/29 01:54:14;;;;;;;51.47;26.50;;;;;;;7.01;82.51;99973.63;5083312;28;20455;-82
2021/10/29 01:56:43;;;;;;;56.63;27.87;;;;;;;7.08;82.13;99976.63;5073141;28;20508;-83
2021/10/29 01:59:10;;;;;;;48.87;28.40;;;;;;;7.05;82.05;99980.41;5066032;28;20586;-84
2021/10/29 02:01:36;;;;;;;45.03;26.40;;;;;;;6.84;83.24;99969.69;5078573;28;20878;-84
2021/10/29 02:04:03;;;;;;;47.53;24.47;;;;;;;6.97;82.54;99967.72;5081261;28;20463;-84
2021/10/29 02:06:29;;;;;;;48.97;25.90;;;;;;;6.95;82.84;99971.47;5080413;28;20510;-81
2021/10/29 02:08:56;;;;;;;43.20;26.27;;;;;;;6.91;83.27;99970.03;5065193;28;20503;-81
2021/10/29 02:11:23;;;;;;;52.23;27.07;;;;;;;6.95;83.21;99963.50;5081327;28;20510;-84
2021/10/29 02:13:51;;;;;;;49.67;26.47;;;;;;;6.91;82.95;99964.72;5083092;28;20821;-83
2021/10/29 02:16:17;;;;;;;50.60;25.30;;;;;;;7.05;83.09;99966.25;5084512;28;20496;-82
2021/10/29 02:18:44;;;;;;;56.80;27.47;;;;;;;6.92;82.77;99964.59;5082968;28;20507;-80
2021/10/29 02:21:10;;;;;;;52.70;25.43;;;;;;;6.98;82.95;99964.09;5067794;28;20506;-83
2021/10/29 02:23:37;;;;;;;51.27;26.53;;;;;;;7.01;82.69;99954.19;5080535;28;20999;-82
2021/10/29 02:26:04;;;;;;;48.27;26.40;;;;;;;7.01;82.63;99957.69;5073660;28;20479;-83
2021/10/29 02:28:31;;;;;;;56.40;28.10;;;;;;;6.98;83.17;99955.28;5071282;28;20475;-86
2021/10/29 02:30:59;;;;;;;50.20;27.03;;;;;;;6.87;83.30;99950.81;5063737;28;20479;-86
2021/10/29 02:33:25;;;;;;;52.13;25.93;;;;;;;6.88;83.57;99947.22;5070678;28;20772;-82
2021/10/29 02:35:52;;;;;;;56.07;25.27;;;;;;;7.00;82.99;99949.84;5079330;28;20496;-85
2021/10/29 02:38:18;;;;;;;52.73;25.30;;;;;;;6.92;83.28;99942.50;5071562;28;20445;-85
2021/10/29 02:40:46;;;;;;;52.90;24.20;;;;;;;6.76;83.62;99940.22;5071640;28;20495;-81
2021/10/29 02:43:12;;;;;;;51.00;27.60;;;;;;;6.82;83.43;99942.38;5084461;28;20698;-85
2021/10/29 02:45:39;;;;;;;47.03;25.20;;;;;;;6.76;83.53;99941.06;5072078;28;20536;-84
2021/10/29 02:48:07;;;;;;;51.20;26.47;;;;;;;6.72;83.62;99928.19;5068034;28;20528;-86
2021/10/29 02:50:34;;;;;;;46.57;24.60;;;;;;;6.73;83.68;99935.16;5070826;28;20492;-83
2021/10/29 02:53:03;;;;;;;49.33;25.17;;;;;;;6.74;83.48;99934.22;5071975;28;20469;-84
2021/10/29 02:55:30;;;;;;;49.03;25.57;;;;;;;6.77;83.47;99936.59;5068939;28;20476;-86
2021/10/29 02:57:56;;;;;;;48.93;26.03;;;;;;;6.78;83.67;99936.47;5064344;28;20469;-86
2021/10/29 03:00:23;;;;;;;46.43;24.50;;;;;;;6.81;83.31;99931.91;5064367;28;20508;-81
2021/10/29 03:02:50;;;;;;;49.57;24.80;;;;;;;6.85;83.49;99930.66;5082757;28;20444;-80
2021/10/29 03:05:18;;;;;;;48.80;25.10;;;;;;;6.83;83.17;99920.16;5079257;28;20503;-84
2021/10/29 03:07:45;;;;;;;49.10;25.37;;;;;;;6.69;84.06;99918.63;5075902;28;20475;-83
2021/10/29 03:10:12;;;;;;;41.10;25.03;;;;;;;6.74;83.53;99923.59;5079084;28;20487;-82
2021/10/29 03:12:40;;;;;;;44.97;23.50;;;;;;;6.56;84.19;99926.75;5063566;28;20445;-83
2021/10/29 03:15:09;;;;;;;47.90;24.60;;;;;;;6.66;84.35;99926.00;5064624;28;20453;-83
2021/10/29 03:17:37;;;;;;;52.47;25.30;;;;;;;6.74;83.37;99929.72;5079481;28;20532;-82
2021/10/29 03:20:05;;;;;;;50.70;26.57;;;;;;;6.75;83.60;99928.78;5076063;28;20519;-82
2021/10/29 03:22:33;;;;;;;46.07;24.27;;;;;;;6.76;83.73;99921.63;5064503;28;20988;-84
2021/10/29 03:25:00;;;;;;;49.73;25.30;;;;;;;6.66;84.20;99918.03;5067018;28;20461;-82
2021/10/29 03:27:26;;;;;;;53.07;24.80;;;;;;;6.73;84.19;99911.25;5063187;28;20510;-83
2021/10/29 03:29:53;;;;;;;53.20;23.97;;;;;;;6.72;84.27;99920.22;5064719;28;20473;-84
2021/10/29 03:32:22;;;;;;;54.03;26.43;;;;;;;6.72;84.24;99910.41;5062882;28;20508;-86
2021/10/29 03:34:49;;;;;;;49.27;26.90;;;;;;;6.76;84.07;99903.88;5076876;28;20481;-85
2021/10/29 03:37:27;;;;;;;48.63;25.50;;;;;;;6.92;83.82;99913.25;5076066;28;20483;-82
2021/10/29 03:40:01;;;;;;;47.50;24.70;;;;;;;6.77;84.30;99910.03;5082576;28;20553;-84
2021/10/29 03:42:32;;;;;;;52.20;25.10;;;;;;;6.79;83.82;99905.47;5068051;28;20774;-85
2021/10/29 03:45:01;;;;;;;50.70;25.33;;;;;;;6.75;84.72;99914.63;5073868;28;20612;-83
2021/10/29 03:47:30;;;;;;;60.17;25.57;;;;;;;6.76;84.59;99906.53;5069726;28;20523;-85
2021/10/29 03:50:14;;;;;;;49.17;27.13;;;;;;;6.85;84.34;99898.78;5063006;28;20448;-85
2021/10/29 03:52:49;;;;;;;51.97;24.63;;;;;;;6.67;84.61;99901.97;5078926;28;20464;-81
2021/10/29 03:55:17;;;;;;;53.23;25.90;;;;;;;6.70;84.81;99896.41;5081707;28;20474;-81
2021/10/29 03:57:44;;;;;;;45.23;23.33;;;;;;;6.83;84.33;99890.09;5068105;28;20444;-79
2021/10/29 04:00:11;;;;;;;44.37;25.73;;;;;;;6.78;84.51;99888.66;5073036;28;20514;-83
2021/10/29 04:02:38;;;;;;;52.17;26.03;;;;;;;6.73;84.63;99887.34;5070388;28;20444;-83
2021/10/29 04:05:05;;;;;;;46.90;26.40;;;;;;;6.71;84.67;99892.78;5080745;28;20690;-76
2021/10/29 04:07:32;;;;;;;54.47;25.53;;;;;;;6.75;84.64;99888.91;5070904;28;20441;-81
2021/10/29 04:09:59;;;;;;;53.90;26.43;;;;;;;6.68;84.53;99887.69;5079927;28;20506;-82
2021/10/29 04:12:27;;;;;;;50.30;25.43;;;;;;;6.78;84.55;99886.00;5063724;28;20562;-80
2021/10/29 04:14:54;;;;;;;49.93;25.50;;;;;;;6.83;84.58;99890.09;5065907;28;20444;-83
2021/10/29 04:17:21;;;;;;;49.67;24.10;;;;;;;6.80;84.60;99891.19;5073290;28;20479;-81
2021/10/29 04:19:47;;;;;;;49.93;24.50;;;;;;;6.71;84.75;99876.84;5074970;28;20488;-80
2021/10/29 04:22:14;;;;;;;52.07;24.63;;;;;;;6.66;85.16;99879.03;5074233;28;20563;-83
2021/10/29 04:24:41;;;;;;;53.03;26.77;;;;;;;6.77;84.74;99875.47;5072048;28;20477;-81
2021/10/29 04:27:07;;;;;;;55.83;27.57;;;;;;;6.82;84.60;99877.78;5061277;28;20501;-81
2021/10/29 04:29:38;;;;;;;49.50;24.27;;;;;;;6.83;84.28;99863.53;5061915;28;20446;-76
2021/10/29 04:32:06;;;;;;;47.37;24.37;;;;;;;6.84;84.50;99870.50;5067561;28;20472;-81
2021/10/29 04:34:32;;;;;;;44.80;24.33;;;;;;;6.82;84.02;99862.66;5065513;28;20444;-79
2021/10/29 04:37:00;;;;;;;47.93;25.03;;;;;;;6.84;83.96;99863.41;5074951;28;20495;-76
2021/10/29 04:39:28;;;;;;;52.63;25.10;;;;;;;6.75;83.92;99854.38;5068670;28;20481;-79
2021/10/29 04:41:55;;;;;;;45.33;23.37;;;;;;;6.84;84.05;99852.78;5059446;28;20460;-79
2021/10/29 04:44:22;;;;;;;53.00;23.73;;;;;;;6.87;84.04;99847.19;5070478;28;20473;-79
2021/10/29 04:46:52;;;;;;;48.53;26.27;;;;;;;6.89;83.53;99844.41;5060514;28;20516;-75
2021/10/29 04:49:18;;;;;;;47.87;25.80;;;;;;;6.86;83.62;99844.69;5070451;28;20456;-77
2021/10/29 04:51:45;;;;;;;44.07;24.83;;;;;;;6.77;83.98;99839.16;5062604;28;20504;-70
2021/10/29 04:54:12;;;;;;;49.80;25.13;;;;;;;6.86;83.91;99831.41;5066752;28;20693;-75
2021/10/29 04:56:38;;;;;;;41.30;21.67;;;;;;;6.96;83.49;99842.94;5074213;28;20782;-76
2021/10/29 04:59:05;;;;;;;42.97;24.33;;;;;;;6.91;83.32;99840.66;5069284;28;20444;-74
2021/10/29 05:01:32;;;;;;;42.93;21.97;;;;;;;7.01;83.72;99830.09;5079220;28;20503;-76
2021/10/29 05:04:00;;;;;;;44.50;22.63;;;;;;;7.06;82.99;99829.72;5080133;28;20948;-76
2021/10/29 05:06:27;;;;;;;41.93;22.27;;;;;;;6.96;82.79;99830.50;5074709;28;20481;-74
2021/10/29 05:08:53;;;;;;;44.30;22.13;;;;;;;7.12;82.79;99824.75;5063417;28;20487;-75
2021/10/29 05:11:23;;;;;;;38.93;21.47;;;;;;;7.19;82.82;99821.56;5063090;28;20994;-76
2021/10/29 05:13:49;;;;;;;38.17;22.07;;;;;;;7.32;82.31;99830.19;5081280;28;20450;-75
2021/10/29 05:16:16;;;;;;;38.53;21.57;;;;;;;7.37;81.81;99835.97;5079601;28;20999;-75
2021/10/29 05:18:43;;;;;;;40.90;20.87;;;;;;;7.44;81.67;99830.97;5078070;28;20901;-76
2021/10/29 05:21:11;;;;;;;34.77;20.60;;;;;;;7.45;81.43;99837.97;5060333;28;20472;-75
2021/10/29 05:23:38;;;;;;;39.90;20.77;;;;;;;7.50;81.62;99828.63;5074818;28;20858;-76
2021/10/29 05:26:05;;;;;;;38.23;19.90;;;;;;;7.57;81.25;99828.09;5066961;28;20473;-75
2021/10/29 05:28:31;;;;;;;33.70;20.40;;;;;;;7.57;81.17;99825.44;5078401;28;20463;-75
2021/10/29 05:30:58;;;;;;;37.43;20.73;;;;;;;7.65;80.87;99821.13;5072450;28;20499;-75
2021/10/29 05:33:25;;;;;;;35.03;20.03;;;;;;;7.73;80.63;99818.66;5077137;28;20487;-74
2021/10/29 05:35:51;;;;;;;39.83;20.40;;;;;;;7.64;80.67;99823.94;5079998;28;20562;-75
2021/10/29 05:38:19;;;;;;;36.80;19.43;;;;;;;7.56;80.49;99821.09;5069625;28;20478;-74
2021/10/29 05:40:46;;;;;;;35.07;19.10;;;;;;;7.53;81.04;99812.41;5073699;28;20503;-75
2021/10/29 05:43:12;;;;;;;33.57;19.33;;;;;;;7.49;81.54;99810.97;5075371;28;20447;-75
2021/10/29 05:45:39;;;;;;;31.60;19.23;;;;;;;7.51;81.54;99817.00;5078443;28;20470;-75
2021/10/29 05:48:07;;;;;;;30.03;17.60;;;;;;;7.58;81.37;99814.66;5080571;28;20456;-75
2021/10/29 05:50:36;;;;;;;31.97;19.60;;;;;;;7.59;80.95;99821.69;5079864;28;20471;-74
2021/10/29 05:53:05;;;;;;;32.47;18.07;;;;;;;7.65;81.16;99820.28;5081187;28;20472;-74
2021/10/29 05:55:33;;;;;;;29.77;18.23;;;;;;;7.58;81.09;99819.16;5078786;28;20523;-75
2021/10/29 05:58:00;;;;;;;32.73;20.17;;;;;;;7.62;81.19;99818.75;5081095;28;20956;-75
2021/10/29 06:00:30;;;;;;;32.30;19.00;;;;;;;7.54;81.47;99819.41;5066574;28;20489;-74
2021/10/29 06:03:04;;;;;;;32.60;19.00;;;;;;;7.62;81.17;99815.22;5060030;28;20463;-75
2021/10/29 06:05:32;;;;;;;29.10;18.50;;;;;;;7.69;80.64;99821.69;5060185;28;20500;-75
2021/10/29 06:07:58;;;;;;;29.00;18.27;;;;;;;7.70;80.73;99818.91;5066985;28;20749;-74
2021/10/29 06:10:25;;;;;;;27.33;16.77;;;;;;;7.82;80.57;99822.34;5078023;28;20508;-75
2021/10/29 06:12:53;;;;;;;27.10;18.27;;;;;;;7.83;80.23;99813.38;5096854;28;20466;-75
2021/10/29 06:15:20;;;;;;;28.53;16.90;;;;;;;7.87;80.04;99820.13;5100431;28;20453;-75
2021/10/29 06:17:47;;;;;;;29.80;16.97;;;;;;;8.01;79.52;99816.25;5099728;28;20420;-75
2021/10/29 06:20:14;;;;;;;30.00;16.57;;;;;;;8.05;79.40;99816.81;5099903;28;20517;-75
2021/10/29 06:22:44;;;;;;;28.33;16.13;;;;;;;8.09;79.05;99818.25;5081571;28;20448;-75
2021/10/29 06:25:13;;;;;;;24.83;16.33;;;;;;;8.15;79.08;99823.03;5076733;28;20464;-74
2021/10/29 06:30:26;;;;;;;22.50;14.67;;;;;;;8.35;78.31;99818.59;5072008;28;23375;-72
2021/10/29 06:32:53;;;;;;;29.23;16.67;;;;;;;8.62;77.14;99828.63;5073337;28;20461;-74
2021/10/29 06:35:19;;;;;;;25.13;14.97;;;;;;;8.83;76.34;99824.97;5067164;28;20470;-73
2021/10/29 06:37:46;;;;;;;30.13;15.07;;;;;;;8.80;76.00;99823.47;5083898;28;20582;-74
2021/10/29 06:40:15;;;;;;;24.17;15.23;;;;;;;8.82;76.14;99826.81;5081552;28;21004;-75
2021/10/29 06:42:47;;;;;;;21.30;13.70;;;;;;;8.96;75.25;99835.38;5081640;28;20634;-74
2021/10/29 06:45:23;;;;;;;22.13;13.30;;;;;;;9.04;75.22;99835.50;5082332;28;21030;-75
2021/10/29 06:47:53;;;;;;;22.60;14.50;;;;;;;9.02;75.62;99830.31;5064086;28;20479;-75
2021/10/29 07:01:23;;;;;;;20.57;12.47;;;;;;;9.36;74.06;99832.53;5071148;28;20896;-77
2021/10/29 07:12:25;;;;;;;18.17;12.43;;;;;;;9.76;72.68;99836.78;5070978;28;20478;-77
2021/10/29 07:39:59;;;;;;;15.43;9.33;;;;;;;15.17;54.53;99843.25;4997206;28;20466;-76
2021/10/29 07:42:32;;;;;;;12.07;8.93;;;;;;;15.25;53.53;99838.63;5003766;28;20548;-77
2021/10/29 07:44:59;;;;;;;13.30;8.30;;;;;;;14.97;53.79;99830.28;5024631;28;20459;-76
2021/10/29 07:47:25;;;;;;;12.47;9.00;;;;;;;15.23;53.94;99837.97;5016862;28;20489;-75
2021/10/29 07:49:52;;;;;;;12.53;9.20;;;;;;;15.19;53.77;99841.19;5018345;28;20461;-77
2021/10/29 07:52:20;;;;;;;13.23;9.40;;;;;;;15.56;52.43;99843.06;5017942;28;20505;-76
2021/10/29 07:54:47;;;;;;;12.50;8.73;;;;;;;15.48;53.33;99839.63;5017256;28;20455;-77
2021/10/29 07:57:17;;;;;;;13.40;9.70;;;;;;;15.44;53.17;99847.22;5031853;28;20964;-77
2021/10/29 07:59:44;;;;;;;12.93;9.47;;;;;;;15.86;52.57;99836.91;5041201;28;20464;-77
2021/10/29 08:02:11;;;;;;;11.33;8.77;;;;;;;15.80;52.24;99838.50;5073556;28;20564;-78
2021/10/29 08:04:38;;;;;;;12.40;8.80;;;;;;;15.49;52.96;99835.91;5079790;28;20887;-77
2021/10/29 08:07:05;;;;;;;16.27;10.33;;;;;;;14.96;54.92;99842.03;5078738;28;20548;-76
2021/10/29 08:09:33;;;;;;;11.27;9.10;;;;;;;15.27;53.97;99843.00;5077282;28;20954;-76
2021/10/29 08:12:00;;;;;;;12.60;9.30;;;;;;;15.08;53.74;99829.00;5079683;28;20506;-77
2021/10/29 08:14:26;;;;;;;15.80;10.27;;;;;;;15.31;54.28;99838.91;5076140;28;20520;-77
2021/10/29 08:16:54;;;;;;;16.13;10.87;;;;;;;15.09;54.52;99833.38;5064196;28;21091;-76
2021/10/29 08:19:24;;;;;;;13.43;10.53;;;;;;;15.78;53.25;99838.69;5080052;28;20906;-77
2021/10/29 08:21:51;;;;;;;14.10;10.30;;;;;;;15.84;53.14;99838.97;5079107;28;20484;-77
2021/10/29 08:24:18;;;;;;;14.13;9.20;;;;;;;16.36;51.79;99833.44;5079559;28;20475;-76
2021/10/29 08:26:46;;;;;;;12.90;10.37;;;;;;;16.73;50.26;99845.09;5079426;28;20488;-77
2021/10/29 08:29:13;;;;;;;13.33;9.90;;;;;;;17.25;49.22;99836.91;5074033;28;20503;-77
2021/10/29 08:31:40;;;;;;;10.67;8.90;;;;;;;18.13;46.69;99826.53;5069379;28;20571;-77
2021/10/29 08:34:06;;;;;;;14.37;10.37;;;;;;;18.28;46.74;99828.25;5060616;28;20429;-77
2021/10/29 08:36:36;;;;;;;14.03;11.20;;;;;;;18.53;45.52;99820.44;5077026;28;20480;-77
2021/10/29 08:39:05;;;;;;;11.60;10.17;;;;;;;18.55;46.09;99823.78;5067256;28;20518;-77
2021/10/29 08:41:31;;;;;;;13.00;10.10;;;;;;;19.23;44.58;99825.59;5078556;28;20484;-77
2021/10/29 08:44:00;;;;;;;10.57;9.40;;;;;;;19.34;44.00;99825.00;5078171;28;20523;-75
2021/10/29 08:46:28;;;;;;;12.17;9.37;;;;;;;19.38;43.32;99820.81;5058594;28;20547;-77
2021/10/29 08:48:55;;;;;;;11.23;10.03;;;;;;;18.47;45.93;99810.41;5051609;28;20459;-77
2021/10/29 08:51:22;;;;;;;12.43;10.53;;;;;;;18.85;45.34;99810.75;5040516;28;20497;-77
2021/10/29 08:53:49;;;;;;;12.50;9.97;;;;;;;20.52;41.56;99815.97;5058495;28;20439;-74
2021/10/29 08:56:16;;;;;;;10.53;9.40;;;;;;;21.20;40.33;99811.81;5058989;28;20468;-77
2021/10/29 08:59:08;;;;;;;11.60;9.87;;;;;;;20.34;41.93;99811.25;5066236;28;20462;-76
2021/10/29 09:01:55;;;;;;;11.83;10.00;;;;;;;20.90;40.31;99808.88;5069463;28;20515;-77
2021/10/29 09:04:30;;;;;;;9.43;8.23;;;;;;;20.30;41.77;99816.28;5065597;28;20824;-77
2021/10/29 09:07:02;;;;;;;12.07;9.60;;;;;;;20.10;42.31;99813.66;5068390;28;20997;-75
2021/10/29 09:09:42;;;;;;;9.80;8.60;;;;;;;19.97;42.74;99810.13;5059236;28;20461;-77
2021/10/29 09:31:59;;;;;;;6.43;5.70;;;;;;;18.84;43.27;99802.84;4958040;28;20484;-77
2021/10/29 09:34:25;;;;;;;6.90;5.90;;;;;;;18.47;43.75;99802.28;4966234;28;20468;-77
2021/10/29 09:36:52;;;;;;;6.90;5.53;;;;;;;19.73;42.82;99805.13;4976253;28;20488;-77
2021/10/29 09:39:21;;;;;;;7.00;5.63;;;;;;;18.42;44.57;99798.34;4977251;28;20452;-77
2021/10/29 09:42:01;;;;;;;6.60;4.93;;;;;;;18.66;44.10;99796.09;4988885;28;20511;-77
2021/10/29 09:44:39;;;;;;;5.63;4.90;;;;;;;18.90;43.24;99796.59;4977610;28;20519;-77
2021/10/29 09:47:07;;;;;;;7.53;5.30;;;;;;;18.78;44.14;99790.91;4977523;28;20481;-77
2021/10/29 09:49:36;;;;;;;7.67;5.30;;;;;;;18.53;45.16;99805.03;4978347;28;20459;-78
2021/10/29 09:52:37;;;;;;;5.70;5.00;;;;;;;18.61;44.06;99774.25;5035131;28;20553;-75
2021/10/29 09:55:15;;;;;;;5.50;4.87;;;;;;;18.30;44.65;99783.72;5034825;28;20458;-77
2021/10/29 09:57:42;;;;;;;6.53;5.77;;;;;;;17.62;46.14;99788.94;5053616;28;20471;-77
2021/10/29 10:00:11;;;;;;;6.50;5.00;;;;;;;18.48;45.23;99782.31;5063279;28;20552;-77
2021/10/29 10:02:42;;;;;;;5.40;4.90;;;;;;;17.80;46.53;99785.75;5070232;28;20523;-77
2021/10/29 10:05:09;;;;;;;6.30;5.70;;;;;;;17.23;47.15;99783.06;5061225;28;20459;-76
2021/10/29 10:07:38;;;;;;;5.77;4.60;;;;;;;17.55;46.96;99785.38;5077034;28;20472;-78
2021/10/29 10:10:07;;;;;;;7.43;5.13;;;;;;;17.06;47.80;99787.91;5070555;28;20480;-78
2021/10/29 10:12:36;;;;;;;6.87;4.87;;;;;;;17.53;46.89;99790.97;5062252;28;20461;-77
2021/10/29 10:15:05;;;;;;;5.47;4.97;;;;;;;17.89;45.83;99792.69;5062575;28;20503;-79
2021/10/29 10:17:32;;;;;;;6.90;4.80;;;;;;;17.97;45.91;99781.72;5062100;28;20452;-77
2021/10/29 10:20:03;;;;;;;6.00;4.80;;;;;;;18.82;44.83;99786.81;5063045;28;20432;-76
2021/10/29 10:22:35;;;;;;;6.70;4.83;;;;;;;18.47;44.71;99791.47;5061997;28;20975;-78
2021/10/29 10:25:10;;;;;;;7.47;4.47;;;;;;;18.05;45.91;99776.13;5067061;28;20459;-77
2021/10/29 10:28:05;;;;;;;5.33;4.63;;;;;;;18.40;44.96;99784.19;5071872;28;20460;-77
2021/10/29 10:31:03;;;;;;;6.77;5.67;;;;;;;18.38;44.73;99778.16;5075471;28;20486;-77
2021/10/29 10:42:31;;;;;;;5.30;3.83;;;;;;;20.49;41.81;99757.50;5079444;28;20482;-77
2021/10/29 10:45:16;;;;;;;5.13;3.50;;;;;;;19.54;42.58;99752.59;5069108;28;20447;-78
2021/10/29 10:47:43;;;;;;;5.90;3.97;;;;;;;18.66;45.09;99743.81;5069855;28;20457;-78
2021/10/29 10:50:16;;;;;;;6.07;3.93;;;;;;;18.58;45.01;99732.16;5072035;28;20451;-76
2021/10/29 10:53:19;;;;;;;4.00;3.10;;;;;;;18.96;44.94;99738.91;5061227;28;20448;-77
2021/10/29 10:56:17;;;;;;;4.83;3.77;;;;;;;18.55;45.98;99737.97;5066660;28;20475;-77
2021/10/29 10:59:03;;;;;;;5.60;3.70;;;;;;;19.00;44.43;99732.84;5065274;28;20440;-77
2021/10/29 11:02:20;;;;;;;4.80;4.23;;;;;;;18.71;44.93;99723.19;5076950;28;20479;-78
2021/10/29 11:05:12;;;;;;;4.03;3.40;;;;;;;18.67;45.16;99715.72;5062768;28;20802;-80
2021/10/29 11:09:53;;;;;;;4.00;3.50;;;;;;;17.85;47.31;99716.50;5074812;28;20472;-75
2021/10/29 11:10:41;;;;;;;3.63;3.33;;;;;;;18.29;47.55;99710.84;5063800;28;20477;-79
2021/10/29 11:13:09;;;;;;;4.73;4.13;;;;;;;18.04;47.95;99698.72;5071195;28;20513;-79
2021/10/29 11:15:37;;;;;;;4.37;3.63;;;;;;;18.56;47.24;99700.94;5080913;28;20472;-78
2021/10/29 11:18:25;;;;;;;4.13;3.10;;;;;;;18.65;46.88;99701.56;5064229;28;20437;-77
2021/10/29 11:20:53;;;;;;;5.00;4.37;;;;;;;17.66;48.92;99695.63;5069922;28;20487;-78
2021/10/29 11:23:22;;;;;;;5.20;4.70;;;;;;;17.23;50.03;99707.41;5061067;28;20452;-76
2021/10/29 11:25:53;;;;;;;5.63;3.93;;;;;;;17.80;48.84;99700.03;5064858;28;20472;-76
2021/10/29 11:28:22;;;;;;;5.27;4.40;;;;;;;17.74;48.71;99686.50;5070383;28;20463;-77
2021/10/29 11:30:52;;;;;;;5.93;4.80;;;;;;;17.24;50.14;99689.34;5063906;28;20491;-76
2021/10/29 11:33:18;;;;;;;5.37;3.93;;;;;;;17.43;50.26;99685.09;5062106;28;20674;-77
2021/10/29 11:36:02;;;;;;;4.90;4.10;;;;;;;17.95;49.07;99688.25;5070473;28;20487;-77
2021/10/29 11:38:31;;;;;;;7.17;3.80;;;;;;;18.23;47.86;99675.47;5063153;28;20509;-78
2021/10/29 11:40:59;;;;;;;4.93;3.70;;;;;;;18.57;47.64;99672.81;5079814;28;20844;-77
2021/10/29 11:43:28;;;;;;;5.50;4.10;;;;;;;18.50;47.08;99670.09;5078615;28;20488;-77
2021/10/29 11:45:55;;;;;;;5.20;4.00;;;;;;;18.03;49.21;99661.88;5066325;28;20529;-78
2021/10/29 11:48:22;;;;;;;5.77;4.53;;;;;;;17.57;49.03;99661.66;5061547;28;20452;-78
2021/10/29 11:51:03;;;;;;;4.50;4.10;;;;;;;17.54;49.51;99662.09;5061269;28;20477;-78
2021/10/29 11:53:30;;;;;;;4.63;3.97;;;;;;;17.37;51.00;99659.69;5065889;28;20445;-78
2021/10/29 11:56:03;;;;;;;6.37;3.87;;;;;;;17.76;49.18;99666.34;5079774;28;20976;-78
2021/10/29 11:58:40;;;;;;;5.10;4.40;;;;;;;18.22;48.79;99670.25;5080168;28;21168;-77
2021/10/29 12:01:15;;;;;;;3.90;3.60;;;;;;;18.07;48.29;99665.00;5080775;28;20554;-77
2021/10/29 12:09:27;;;;;;;4.60;4.20;;;;;;;17.49;50.51;99646.47;5080886;28;20462;-76
2021/10/29 12:12:02;;;;;;;6.33;4.40;;;;;;;16.97;51.52;99639.72;5075416;28;20475;-78
2021/10/29 12:14:30;;;;;;;5.10;3.90;;;;;;;17.55;51.18;99636.72;5061271;28;20436;-76
2021/10/29 12:17:05;;;;;;;7.37;5.83;;;;;;;16.91;53.61;99634.06;5059760;28;20535;-77
2021/10/29 12:19:31;;;;;;;6.20;5.03;;;;;;;17.20;52.76;99625.94;5059785;28;20432;-78
2021/10/29 12:22:05;;;;;;;8.10;6.70;;;;;;;17.00;54.54;99629.34;5060225;28;21229;-78
2021/10/29 12:24:33;;;;;;;9.83;7.03;;;;;;;16.72;55.62;99624.78;5060078;28;20504;-78
2021/10/29 12:27:05;;;;;;;7.07;6.37;;;;;;;16.74;55.58;99627.28;5059220;28;20534;-78
2021/10/29 12:29:34;;;;;;;7.07;5.60;;;;;;;16.71;54.87;99624.97;5060454;28;20425;-79
2021/10/29 12:37:46;;;;;;;6.20;4.40;;;;;;;16.57;54.31;99619.44;5036283;28;20485;-78
2021/10/29 12:58:48;;;;;;;5.37;4.87;;;;;;;15.98;54.58;99580.13;5060006;28;21008;-78
2021/10/29 13:03:03;;;;;;;5.50;4.77;;;;;;;15.95;55.47;99560.81;5080169;28;20486;-78
2021/10/29 13:05:30;;;;;;;7.10;5.10;;;;;;;15.77;55.12;99561.25;5078893;28;20590;-78
2021/10/29 13:07:57;;;;;;;7.97;4.77;;;;;;;15.76;55.32;99549.66;5080897;28;20454;-78
2021/10/29 13:10:24;;;;;;;5.57;4.83;;;;;;;15.85;55.56;99553.06;5077905;28;21018;-79
2021/10/29 13:12:57;;;;;;;6.23;5.40;;;;;;;15.71;55.17;99546.66;5079438;28;20451;-77
2021/10/29 13:15:26;;;;;;;6.63;5.43;;;;;;;15.86;54.66;99535.84;5079508;28;20455;-78
2021/10/29 13:17:57;;;;;;;5.60;5.10;;;;;;;15.73;55.39;99554.56;5079898;28;20439;-78
2021/10/29 13:28:40;;;;;;;6.53;5.17;;;;;;;16.27;54.89;99528.94;5080510;28;21065;-78
2021/10/29 13:36:49;;;;;;;8.47;5.90;;;;;;;16.45;54.73;99545.47;5059155;28;20484;-75
2021/10/29 13:50:53;;;;;;;7.73;6.00;;;;;;;16.92;51.97;99568.22;5019726;28;20473;-78